Красная Поляна

СКИДКИ НА СМАРТФОНЫ!

Карта отелей и гостиниц, располагающихся рядом с аэропортом Красная Поляна :

Красная Поляна Белгородская область 50° 32' 56.8788" N, 37° 6' 51.48" E
Код аэродрома ИКАО
ZC5D
Код аэродрома RU
ЗЦ5Д
Координаты
N50.54913° E037.11430°
Превышение над уровнем моря
217
Основная полоса
09/27
Курс магнитный
089,5/269,5
Длина основной ВПП
445
Ширина основной ВПП
18
Покрытие основной ВПП
Твёрдое (асфальт)
Освещение ВПП
Нет
Тип: 
Аэродром
Класс аэродрома: 
Принадлежность: 
ГА
Статус: 
Недействующий
Сайт: 
E-mail аэродрома: 
Страна: 
Россия
Регион: 
Белгородская область
Город: 
Дополнительная информация: 
Площадка АХР.

Скидки на навигаторы!

Найти трансфер

С помощью этой формы Вы можете найти трансфер из аэропорта Красная Поляна в город, аэропорт или вокзал:

Погода в аэропортах:

Авиационная погода в Богашево

Регион: 
Погода METAR: 
UNTT 072100Z 21006MPS 7000 -SHSN SCT032CB M19/M22 Q1035 R21/////// NOSIG RMK QFE761
Время наблюдения
2022-12-07T21:00:00Z
Температура C
-19.0
Точка росы
-22.0
Направление ветра
210
Скорость ветра (узлы)
12
Метео видимость
4.35
Облачность
SCT
Нижняя граница облачности (футы)
3200
Явления погоды
-SHSN
Условия полета
MVFR
Аэропорт подробнее: 
SCT – разбросанная отдельная облачность;
-SHSN - слабый ливневой снег;

Авиационная погода в Брянске

Регион: 
Погода METAR: 
UUBP 072100Z AUTO 13005MPS 1900 SN ///004 M06/M08 Q1017 NOSIG RMK QFE745/0993
Время наблюдения
2022-12-07T21:00:00Z
Температура C
-6.0
Точка росы
-8.0
Направление ветра
130
Скорость ветра (узлы)
10
Метео видимость
1.18
Облачность
Нижняя граница облачности (футы)
Явления погоды
SN
Условия полета
Аэропорт подробнее: 
SN – снег;

Авиационная погода в Лаппеэнранта

Регион: 
Погода METAR: 
EFLP 072050Z AUTO 11006KT 070V150 7000 -SN BKN007 M06/M08 Q1004
Время наблюдения
2022-12-07T20:50:00Z
Температура C
-6.0
Точка росы
-8.0
Направление ветра
110
Скорость ветра (узлы)
6
Метео видимость
4.35
Облачность
BKN
Нижняя граница облачности (футы)
700
Явления погоды
-SN
Условия полета
IFR
BKN – значительная (рассеянная, разорванная) облачность;
-SN – слабый снег;

Авиационная погода в Бресте

Регион: 
Погода METAR: 
UMBB 071100Z 22003MPS 1300 R29/1300 SHSNRA BR OVC004CB 00/M00 Q1006 NOSIG RMK QBB120
Время наблюдения
2022-12-07T11:00:00Z
Температура C
0.0
Точка росы
0.0
Направление ветра
220
Скорость ветра (узлы)
6
Метео видимость
0.81
Облачность
OVC
Нижняя граница облачности (футы)
400
Явления погоды
SHSN RA BR
Условия полета
LIFR
Аэропорт подробнее: 
OVC – сплошная облачность;
RA - дождь; SHSN - ливневой снег; BR – дымка (видимость от 1 до 9 км);